createdAt,value
2023-07-10T00:01:31.969Z,84.59
2023-07-10T00:03:59.207Z,84.43
2023-07-10T00:06:26.199Z,84.94
2023-07-10T00:08:53.251Z,85.47
2023-07-10T00:11:32.202Z,85.61
2023-07-10T00:13:59.456Z,85.67
2023-07-10T00:16:28.315Z,86.07
2023-07-10T00:18:55.736Z,85.95
2023-07-10T00:21:22.716Z,86.62
2023-07-10T00:23:49.894Z,86.63
2023-07-10T00:26:20.590Z,86.77
2023-07-10T00:28:52.186Z,87.00
2023-07-10T00:31:19.689Z,87.09
2023-07-10T00:33:48.769Z,87.28
2023-07-10T00:36:31.123Z,87.47
2023-07-10T00:39:01.218Z,85.93
2023-07-10T00:41:35.378Z,87.78
2023-07-10T00:44:04.495Z,88.30
2023-07-10T00:46:57.753Z,88.67
2023-07-10T00:49:25.087Z,88.80
2023-07-10T00:52:01.489Z,88.84
2023-07-10T00:54:37.455Z,88.74
2023-07-10T00:57:10.843Z,89.13
2023-07-10T00:59:41.032Z,89.31
2023-07-10T01:02:13.762Z,89.45
2023-07-10T01:04:43.486Z,89.44
2023-07-10T01:07:16.912Z,89.63
2023-07-10T01:09:55.193Z,90.15
2023-07-10T01:12:22.175Z,89.57
2023-07-10T01:14:49.128Z,90.38
2023-07-10T01:17:16.083Z,90.01
2023-07-10T01:19:46.912Z,90.46
2023-07-10T01:22:15.078Z,90.51
2023-07-10T01:24:42.860Z,90.63
2023-07-10T01:27:13.695Z,90.92
2023-07-10T01:29:48.432Z,90.98
2023-07-10T01:32:20.935Z,91.72
2023-07-10T01:34:55.443Z,91.72
2023-07-10T01:37:22.323Z,91.92
2023-07-10T01:39:52.094Z,91.99
2023-07-10T01:42:19.274Z,92.20
2023-07-10T01:44:48.496Z,92.17
2023-07-10T01:47:16.872Z,92.04
2023-07-10T01:49:53.217Z,92.47
2023-07-10T01:52:22.154Z,92.21
2023-07-10T01:54:49.250Z,92.77
2023-07-10T01:57:17.991Z,92.70
2023-07-10T01:59:45.564Z,92.87
2023-07-10T02:02:12.490Z,93.06
2023-07-10T02:04:39.366Z,93.64
2023-07-10T02:07:06.254Z,93.56
2023-07-10T02:09:33.555Z,93.25
2023-07-10T02:12:01.445Z,93.50
2023-07-10T02:14:29.166Z,93.48
2023-07-10T02:16:56.405Z,93.43
2023-07-10T02:19:23.564Z,93.23
2023-07-10T02:21:50.513Z,93.34
2023-07-10T02:24:17.364Z,93.30
2023-07-10T02:26:44.236Z,93.31
2023-07-10T02:29:11.157Z,93.44
2023-07-10T02:31:38.255Z,93.82
2023-07-10T02:34:05.397Z,93.86
2023-07-10T02:36:32.461Z,93.46
2023-07-10T02:38:59.296Z,93.21
2023-07-10T02:41:26.373Z,93.39
2023-07-10T02:43:53.258Z,93.60
2023-07-10T02:46:20.193Z,93.77
2023-07-10T02:48:47.120Z,93.40
2023-07-10T02:51:14.319Z,93.62
2023-07-10T02:53:41.580Z,93.96
2023-07-10T02:56:08.592Z,93.28
2023-07-10T02:58:35.715Z,93.54
2023-07-10T03:01:04.103Z,93.89
2023-07-10T03:03:31.730Z,93.55
2023-07-10T03:06:01.321Z,93.87
2023-07-10T03:08:29.574Z,93.58
2023-07-10T03:11:04.850Z,93.64
2023-07-10T03:13:32.143Z,93.45
2023-07-10T03:16:04.729Z,93.35
2023-07-10T03:18:31.955Z,92.91
2023-07-10T03:20:58.847Z,93.08
2023-07-10T03:23:25.830Z,93.12
2023-07-10T03:25:53.083Z,92.67
2023-07-10T03:28:20.010Z,92.67
2023-07-10T03:30:47.066Z,92.11
2023-07-10T03:33:15.615Z,92.40
2023-07-10T03:35:43.212Z,92.36
2023-07-10T03:38:10.182Z,92.25
2023-07-10T03:40:37.207Z,92.47
2023-07-10T03:43:04.565Z,92.34
2023-07-10T03:45:32.635Z,91.93
2023-07-10T03:47:59.533Z,91.13
2023-07-10T03:50:26.561Z,91.10
2023-07-10T03:52:53.606Z,91.08
2023-07-10T03:55:20.514Z,91.69
2023-07-10T03:57:47.376Z,91.71
2023-07-10T04:00:14.999Z,91.40
2023-07-10T04:02:41.920Z,91.10
2023-07-10T04:05:09.056Z,91.99
2023-07-10T04:07:35.964Z,91.93
2023-07-10T04:10:03.935Z,91.55
2023-07-10T04:12:33.451Z,91.76
2023-07-10T04:15:00.620Z,91.36
2023-07-10T04:17:27.911Z,90.96
2023-07-10T04:19:54.771Z,89.56
2023-07-10T04:22:21.667Z,89.40
2023-07-10T04:24:48.589Z,88.63
2023-07-10T04:27:15.566Z,88.36
2023-07-10T04:29:42.555Z,87.42
2023-07-10T04:32:10.655Z,87.07
2023-07-10T04:34:37.560Z,87.25
2023-07-10T04:37:04.575Z,86.17
2023-07-10T04:39:31.517Z,85.41
2023-07-10T04:41:58.372Z,84.39
2023-07-10T04:44:25.193Z,83.82
2023-07-10T04:46:52.275Z,82.86
2023-07-10T04:49:20.898Z,82.65
2023-07-10T04:51:48.270Z,82.06
2023-07-10T04:54:15.168Z,81.19
2023-07-10T04:56:42.047Z,80.18
2023-07-10T04:59:08.853Z,80.56
2023-07-10T05:01:35.887Z,80.27
2023-07-10T05:04:03.916Z,79.42
2023-07-10T05:06:30.978Z,79.29
2023-07-10T05:09:02.044Z,78.67
2023-07-10T05:11:31.296Z,78.56
2023-07-10T05:13:59.013Z,77.94
2023-07-10T05:16:26.200Z,78.05
2023-07-10T05:18:53.276Z,77.90
2023-07-10T05:21:20.293Z,77.50
2023-07-10T05:23:47.386Z,76.45
2023-07-10T05:26:16.699Z,74.35
2023-07-10T05:28:43.606Z,74.23
2023-07-10T05:31:12.323Z,73.83
2023-07-10T05:33:41.042Z,73.16
2023-07-10T05:36:11.605Z,74.65
2023-07-10T05:38:39.525Z,74.55
2023-07-10T05:41:07.824Z,74.22
2023-07-10T05:43:35.779Z,71.09
2023-07-10T05:46:04.068Z,71.18
2023-07-10T05:48:32.015Z,71.60
2023-07-10T05:50:59.206Z,72.03
2023-07-10T05:53:26.774Z,72.92
2023-07-10T05:55:55.898Z,71.95
2023-07-10T05:58:25.766Z,71.71
2023-07-10T06:00:57.220Z,71.03
2023-07-10T06:03:24.996Z,70.73
2023-07-10T06:06:00.959Z,68.93
2023-07-10T06:08:30.162Z,68.75
2023-07-10T06:10:57.810Z,68.11
2023-07-10T06:13:25.371Z,68.55
2023-07-10T06:15:55.417Z,68.58
2023-07-10T06:18:23.171Z,67.08
2023-07-10T06:20:58.514Z,67.91
2023-07-10T06:23:27.788Z,68.03
2023-07-10T06:25:55.472Z,67.98
2023-07-10T06:28:23.239Z,68.53
2023-07-10T06:31:02.780Z,67.31
2023-07-10T06:33:31.618Z,66.02
2023-07-10T06:35:59.314Z,66.31
2023-07-10T06:38:26.606Z,65.64
2023-07-10T06:40:53.993Z,65.98
2023-07-10T06:43:22.029Z,65.82
2023-07-10T06:45:49.268Z,66.05
2023-07-10T06:48:16.825Z,66.48
2023-07-10T06:50:54.536Z,67.18
2023-07-10T06:53:27.332Z,65.40
2023-07-10T06:55:58.163Z,66.55
2023-07-10T06:58:25.585Z,65.73
2023-07-10T07:00:53.159Z,65.49
2023-07-10T07:03:20.396Z,65.89
2023-07-10T07:05:48.904Z,66.76
2023-07-10T07:08:18.927Z,67.13
2023-07-10T07:10:47.338Z,67.20
2023-07-10T07:13:14.786Z,67.07
2023-07-10T07:15:41.735Z,66.89
2023-07-10T07:18:08.687Z,64.87
2023-07-10T07:20:35.618Z,64.76
2023-07-10T07:23:02.692Z,64.84
2023-07-10T07:25:30.112Z,64.80
2023-07-10T07:28:00.880Z,65.15
2023-07-10T07:30:29.217Z,65.71
2023-07-10T07:32:57.553Z,66.07
2023-07-10T07:35:24.506Z,66.88
2023-07-10T07:37:51.422Z,66.17
2023-07-10T07:40:18.420Z,66.37
2023-07-10T07:42:47.928Z,65.46
2023-07-10T07:45:16.384Z,65.59
2023-07-10T07:47:44.390Z,65.58
2023-07-10T07:50:12.034Z,66.13
2023-07-10T07:52:39.008Z,65.72
2023-07-10T07:55:07.213Z,65.02
2023-07-10T07:57:34.193Z,65.24
2023-07-10T08:00:01.223Z,64.66
2023-07-10T08:02:28.293Z,64.20
2023-07-10T08:04:55.458Z,64.05
2023-07-10T08:07:22.892Z,64.43
2023-07-10T08:09:52.480Z,64.89
2023-07-10T08:12:20.451Z,64.64
2023-07-10T08:14:47.690Z,64.67
2023-07-10T08:17:14.573Z,64.84
2023-07-10T08:19:41.489Z,65.23
2023-07-10T08:22:08.415Z,65.00
2023-07-10T08:24:36.047Z,65.29
2023-07-10T08:27:03.165Z,66.08
2023-07-10T08:29:32.106Z,65.46
2023-07-10T08:32:01.149Z,65.96
2023-07-10T08:34:30.761Z,65.91
2023-07-10T08:37:00.219Z,65.73
2023-07-10T08:39:27.612Z,62.74
2023-07-10T08:42:02.760Z,62.80
2023-07-10T08:44:38.290Z,63.60
2023-07-10T08:47:27.336Z,63.17
2023-07-10T08:50:06.270Z,63.22
2023-07-10T08:52:38.871Z,64.16
2023-07-10T08:55:13.969Z,62.90
2023-07-10T08:57:49.277Z,63.54
2023-07-10T09:00:17.059Z,63.94
2023-07-10T09:03:15.205Z,63.36
2023-07-10T09:05:48.749Z,63.65
2023-07-10T09:08:16.241Z,63.18
2023-07-10T09:10:53.124Z,63.41
2023-07-10T09:13:39.676Z,62.42
2023-07-10T09:16:19.198Z,62.84
2023-07-10T09:19:02.851Z,63.31
2023-07-10T09:21:33.661Z,63.99
2023-07-10T09:24:00.763Z,62.96
2023-07-10T09:26:31.122Z,62.48
2023-07-10T09:29:06.138Z,62.83
2023-07-10T09:31:54.833Z,62.75
2023-07-10T09:34:30.245Z,63.39
2023-07-10T09:36:58.937Z,62.37
2023-07-10T09:39:32.256Z,62.11
2023-07-10T09:42:01.146Z,62.31
2023-07-10T09:44:36.284Z,61.65
2023-07-10T09:47:12.030Z,61.10
2023-07-10T09:49:54.032Z,60.51
2023-07-10T09:52:26.173Z,59.60
2023-07-10T09:55:02.342Z,57.71
2023-07-10T09:57:31.029Z,55.04
2023-07-10T10:00:00.920Z,54.59
2023-07-10T10:02:51.109Z,55.30
2023-07-10T10:05:22.683Z,54.79
2023-07-10T10:07:51.918Z,52.93
2023-07-10T10:10:21.074Z,53.76
2023-07-10T10:12:57.882Z,55.56
2023-07-10T10:15:39.603Z,57.07
2023-07-10T10:18:15.013Z,57.68
2023-07-10T10:20:42.481Z,57.72
2023-07-10T10:23:32.516Z,57.64
2023-07-10T10:26:28.697Z,56.82
2023-07-10T10:29:06.517Z,56.06
2023-07-10T10:31:41.784Z,55.92
2023-07-10T10:34:24.351Z,57.46
2023-07-10T10:37:06.141Z,57.97
2023-07-10T10:39:39.342Z,57.75
2023-07-10T10:42:15.599Z,58.20
2023-07-10T10:45:07.759Z,58.00
2023-07-10T10:47:54.179Z,58.93
2023-07-10T10:50:36.955Z,60.19
2023-07-10T10:53:09.752Z,60.16
2023-07-10T10:55:57.359Z,60.66
2023-07-10T10:58:26.773Z,60.44
2023-07-10T11:00:56.659Z,60.79
2023-07-10T11:03:29.633Z,61.19
2023-07-10T11:06:02.823Z,61.86
2023-07-10T11:08:46.447Z,61.77
2023-07-10T11:11:34.281Z,62.12
2023-07-10T11:14:04.875Z,62.60
2023-07-10T11:16:34.483Z,62.35
2023-07-10T11:19:04.455Z,61.75
2023-07-10T11:21:32.661Z,63.15
2023-07-10T11:24:13.187Z,62.40
2023-07-10T11:26:40.133Z,62.71
2023-07-10T11:29:29.243Z,63.03
2023-07-10T11:31:59.223Z,63.03
2023-07-10T11:34:26.102Z,62.53
2023-07-10T11:36:53.117Z,62.10
2023-07-10T11:39:41.782Z,61.31
2023-07-10T11:42:18.585Z,61.61
2023-07-10T11:44:54.603Z,61.82
2023-07-10T11:47:28.576Z,62.45
2023-07-10T11:49:55.720Z,62.93
2023-07-10T11:52:22.613Z,63.84
2023-07-10T11:54:49.571Z,62.46
2023-07-10T11:57:24.759Z,62.45
2023-07-10T11:59:57.359Z,62.68
2023-07-10T12:02:41.143Z,62.43
2023-07-10T12:05:19.556Z,60.82
2023-07-10T12:07:54.386Z,59.60
2023-07-10T12:10:22.685Z,59.29
2023-07-10T12:12:51.039Z,58.54
2023-07-10T12:15:18.341Z,57.79
2023-07-10T12:17:45.418Z,57.34
2023-07-10T12:20:33.347Z,58.89
2023-07-10T12:23:05.645Z,60.54
2023-07-10T12:25:32.613Z,61.13
2023-07-10T12:30:36.030Z,61.94
2023-07-10T12:33:03.200Z,62.83
2023-07-10T12:35:37.030Z,63.57
2023-07-10T12:38:06.541Z,64.00
2023-07-10T12:40:34.028Z,65.93
2023-07-10T12:43:23.754Z,66.23
2023-07-10T12:46:13.433Z,66.33
2023-07-10T12:48:41.439Z,65.70
2023-07-10T12:51:09.418Z,65.36
2023-07-10T12:53:41.026Z,64.41
2023-07-10T12:56:26.632Z,63.78
2023-07-10T12:58:57.217Z,62.03
2023-07-10T13:01:34.067Z,60.70
2023-07-10T13:04:22.123Z,59.70
2023-07-10T13:07:20.089Z,58.54
2023-07-10T13:10:03.243Z,57.30
2023-07-10T13:12:37.444Z,56.34
2023-07-10T13:15:08.374Z,56.95
2023-07-10T13:17:39.205Z,58.54
2023-07-10T13:20:20.631Z,58.22
2023-07-10T13:22:47.663Z,57.77
2023-07-10T13:25:14.611Z,56.20
2023-07-10T13:27:41.871Z,55.12
2023-07-10T13:30:27.086Z,55.85
2023-07-10T13:32:54.284Z,57.01
2023-07-10T13:35:21.235Z,58.82
2023-07-10T13:37:48.309Z,61.27
2023-07-10T13:40:25.177Z,63.36
2023-07-10T13:42:52.384Z,65.01
2023-07-10T13:45:19.445Z,66.24
2023-07-10T13:47:46.420Z,67.41
2023-07-10T13:50:17.440Z,69.40
2023-07-10T13:52:44.824Z,71.20
2023-07-10T13:55:14.679Z,72.87
2023-07-10T13:57:41.787Z,74.66
2023-07-10T14:00:15.002Z,75.09
2023-07-10T14:02:44.566Z,75.64
2023-07-10T14:05:15.854Z,76.36
2023-07-10T14:07:44.387Z,77.03
2023-07-10T14:10:20.994Z,77.64
2023-07-10T14:12:48.123Z,78.20
2023-07-10T14:15:16.585Z,79.27
2023-07-10T14:17:43.810Z,80.70
2023-07-10T14:20:23.030Z,80.74
2023-07-10T14:22:50.096Z,81.79
2023-07-10T14:25:23.448Z,82.40
2023-07-10T14:27:50.499Z,82.67
2023-07-10T14:30:21.279Z,82.58
2023-07-10T14:32:48.902Z,83.06
2023-07-10T14:35:21.121Z,83.67
2023-07-10T14:37:50.276Z,83.20
2023-07-10T14:40:18.700Z,83.96
2023-07-10T14:42:46.534Z,84.05
2023-07-10T14:45:17.832Z,84.06
2023-07-10T14:47:46.774Z,83.89
2023-07-10T14:50:14.636Z,83.92
2023-07-10T14:52:43.998Z,84.21
2023-07-10T14:55:17.487Z,85.00
2023-07-10T14:57:44.925Z,84.81
2023-07-10T15:00:27.572Z,85.51
2023-07-10T15:02:55.369Z,86.95
2023-07-10T15:05:24.749Z,87.24
2023-07-10T15:07:57.553Z,88.08
2023-07-10T15:10:27.678Z,86.28
2023-07-10T15:12:57.990Z,88.52
2023-07-10T15:15:31.871Z,89.96
2023-07-10T15:17:59.240Z,90.61
2023-07-10T15:20:26.128Z,91.34
2023-07-10T15:22:53.101Z,92.23
2023-07-10T15:25:26.218Z,92.24
2023-07-10T15:27:53.443Z,92.20
2023-07-10T15:30:22.242Z,91.80
2023-07-10T15:32:51.488Z,91.27
2023-07-10T15:35:21.295Z,91.70
2023-07-10T15:37:48.953Z,91.70
2023-07-10T15:40:21.723Z,90.86
2023-07-10T15:42:51.089Z,90.71
2023-07-10T15:45:19.550Z,90.82
2023-07-10T15:47:49.388Z,90.90
2023-07-10T15:50:17.821Z,91.33
2023-07-10T15:52:48.270Z,91.11
2023-07-10T15:55:30.769Z,90.47
2023-07-10T15:57:57.947Z,90.64
2023-07-10T16:00:27.560Z,90.66
2023-07-10T16:02:55.843Z,90.32
2023-07-10T16:05:22.834Z,89.47
2023-07-10T16:07:54.690Z,88.65
2023-07-10T16:10:23.161Z,89.26
2023-07-10T16:12:52.331Z,89.13
2023-07-10T16:15:25.356Z,89.12
2023-07-10T16:17:53.990Z,89.36
2023-07-10T16:20:25.351Z,89.90
2023-07-10T16:23:05.115Z,89.94
2023-07-10T16:25:32.553Z,90.42
2023-07-10T16:27:59.476Z,90.57
2023-07-10T16:30:27.843Z,91.00
2023-07-10T16:32:54.908Z,90.92
2023-07-10T16:35:25.439Z,90.90
2023-07-10T16:37:53.571Z,90.84
2023-07-10T16:40:23.869Z,90.86
2023-07-10T16:43:01.043Z,90.78
2023-07-10T16:45:30.805Z,89.87
2023-07-10T16:47:58.342Z,89.24
2023-07-10T16:50:26.286Z,88.34
2023-07-10T16:52:53.675Z,88.29
2023-07-10T16:55:23.997Z,88.54
2023-07-10T16:57:53.451Z,88.11
2023-07-10T17:00:26.309Z,88.09
2023-07-10T17:02:55.258Z,87.94
2023-07-10T17:05:22.193Z,88.57
2023-07-10T17:07:49.045Z,87.88
2023-07-10T17:10:16.550Z,87.93
2023-07-10T17:12:45.029Z,87.95
2023-07-10T17:15:16.267Z,88.32
2023-07-10T17:17:43.568Z,88.40
2023-07-10T17:20:15.351Z,89.24
2023-07-10T17:22:42.497Z,89.60
2023-07-10T17:25:17.728Z,89.91
2023-07-10T17:27:45.106Z,90.47
2023-07-10T17:30:16.946Z,90.26
2023-07-10T17:32:44.351Z,89.00
2023-07-10T17:35:18.533Z,89.50
2023-07-10T17:37:51.376Z,89.82
2023-07-10T17:40:18.478Z,90.06
2023-07-10T17:42:48.010Z,89.88
2023-07-10T17:45:18.714Z,90.12
2023-07-10T17:47:46.467Z,90.28
2023-07-10T17:50:18.025Z,90.19
2023-07-10T17:52:47.297Z,89.99
2023-07-10T17:55:19.878Z,90.26
2023-07-10T17:57:49.679Z,89.94
2023-07-10T18:00:18.339Z,90.17
2023-07-10T18:02:47.526Z,90.46
2023-07-10T18:05:25.481Z,90.17
2023-07-10T18:07:55.275Z,90.35
2023-07-10T18:10:26.984Z,90.18
2023-07-10T18:12:54.506Z,90.31
2023-07-10T18:15:21.474Z,90.67
2023-07-10T18:17:48.590Z,90.85
2023-07-10T18:20:17.764Z,91.00
2023-07-10T18:22:45.108Z,90.74
2023-07-10T18:25:20.076Z,91.66
2023-07-10T18:27:47.750Z,91.92
2023-07-10T18:30:18.718Z,92.59
2023-07-10T18:32:46.071Z,92.72
2023-07-10T18:35:18.464Z,92.94
2023-07-10T18:37:46.672Z,93.69
2023-07-10T18:40:14.198Z,94.20
2023-07-10T18:42:41.256Z,94.54
2023-07-10T18:45:18.829Z,94.94
2023-07-10T18:47:45.864Z,95.32
2023-07-10T18:50:17.078Z,95.09
2023-07-10T18:52:44.524Z,95.09
2023-07-10T18:55:16.459Z,94.68
2023-07-10T18:57:43.149Z,93.87
2023-07-10T19:00:22.450Z,94.09
2023-07-10T19:02:51.021Z,94.18
2023-07-10T19:05:18.001Z,94.70
2023-07-10T19:07:45.031Z,95.43
2023-07-10T19:10:20.159Z,95.57
2023-07-10T19:12:51.036Z,95.67
2023-07-10T19:15:17.862Z,95.66
2023-07-10T19:17:47.065Z,95.03
2023-07-10T19:20:23.161Z,95.08
2023-07-10T19:22:54.326Z,94.86
2023-07-10T19:25:23.137Z,94.53
2023-07-10T19:27:50.395Z,94.62
2023-07-10T19:30:18.723Z,94.53
2023-07-10T19:32:48.334Z,94.27
2023-07-10T19:35:17.787Z,94.09
2023-07-10T19:37:45.817Z,94.21
2023-07-10T19:40:20.971Z,94.10
2023-07-10T19:42:48.045Z,94.55
2023-07-10T19:45:19.811Z,94.46
2023-07-10T19:47:46.728Z,94.70
2023-07-10T19:50:19.899Z,94.41
2023-07-10T19:52:47.752Z,94.69
2023-07-10T19:55:16.667Z,94.74
2023-07-10T19:57:50.049Z,94.82
2023-07-10T20:00:27.461Z,94.80
2023-07-10T20:02:54.565Z,95.30
2023-07-10T20:05:21.588Z,95.07
2023-07-10T20:07:48.652Z,95.26
2023-07-10T20:10:22.868Z,95.58
2023-07-10T20:12:50.563Z,95.45
2023-07-10T20:15:17.794Z,96.00
2023-07-10T20:17:47.991Z,95.88
2023-07-10T20:20:27.148Z,95.98
2023-07-10T20:22:55.523Z,96.54
2023-07-10T20:25:22.476Z,96.33
2023-07-10T20:27:49.791Z,96.67
2023-07-10T20:30:21.941Z,96.71
2023-07-10T20:32:49.235Z,96.87
2023-07-10T20:35:17.730Z,96.75
2023-07-10T20:37:46.557Z,97.16
2023-07-10T20:40:16.270Z,97.07
2023-07-10T20:42:43.347Z,96.75
2023-07-10T20:45:14.998Z,96.73
2023-07-10T20:47:48.771Z,96.76
2023-07-10T20:50:16.378Z,96.24
2023-07-10T20:52:45.543Z,96.81
2023-07-10T20:55:15.541Z,96.72
2023-07-10T20:57:42.631Z,96.25
2023-07-10T21:00:17.565Z,96.23
2023-07-10T21:02:44.794Z,96.20
2023-07-10T21:05:11.932Z,96.20
2023-07-10T21:07:39.309Z,96.01
2023-07-10T21:10:07.505Z,96.41
2023-07-10T21:12:34.533Z,96.49
2023-07-10T21:15:01.572Z,97.18
2023-07-10T21:17:33.008Z,96.90
2023-07-10T21:20:01.812Z,96.92
2023-07-10T21:22:32.832Z,96.79
2023-07-10T21:24:59.941Z,96.69
2023-07-10T21:27:30.399Z,96.63
2023-07-10T21:30:18.682Z,96.03
2023-07-10T21:32:46.395Z,96.13
2023-07-10T21:35:31.148Z,96.02
2023-07-10T21:37:58.197Z,95.48
2023-07-10T21:40:25.361Z,95.40
2023-07-10T21:42:52.628Z,95.54
2023-07-10T21:45:19.905Z,95.67
2023-07-10T21:47:46.896Z,95.15
2023-07-10T21:50:16.188Z,95.45
2023-07-10T21:52:43.177Z,95.60
2023-07-10T21:55:13.327Z,95.52
2023-07-10T21:57:40.677Z,95.25
2023-07-10T22:00:09.704Z,95.67
2023-07-10T22:02:36.707Z,95.21
2023-07-10T22:05:12.800Z,95.55
2023-07-10T22:07:39.760Z,95.66
2023-07-10T22:10:06.968Z,95.60
2023-07-10T22:12:34.526Z,95.43
2023-07-10T22:15:01.457Z,95.35
2023-07-10T22:17:31.995Z,95.45
2023-07-10T22:19:58.935Z,94.97
2023-07-10T22:22:26.312Z,95.07
2023-07-10T22:24:53.154Z,95.31
2023-07-10T22:27:20.082Z,95.64
2023-07-10T22:29:47.043Z,95.52
2023-07-10T22:32:14.030Z,95.69
2023-07-10T22:34:41.117Z,95.53
2023-07-10T22:37:11.003Z,95.87
2023-07-10T22:39:37.915Z,95.41
2023-07-10T22:42:05.089Z,95.60
2023-07-10T22:44:32.158Z,95.75
2023-07-10T22:47:01.516Z,95.66
2023-07-10T22:49:28.566Z,95.57
2023-07-10T22:51:55.565Z,95.78
2023-07-10T22:54:22.450Z,95.61
2023-07-10T22:56:49.338Z,95.64
2023-07-10T22:59:20.211Z,95.77
2023-07-10T23:01:50.013Z,95.79
2023-07-10T23:04:19.070Z,95.64
2023-07-10T23:06:46.334Z,95.69
2023-07-10T23:09:13.594Z,95.79
2023-07-10T23:11:40.513Z,95.68
2023-07-10T23:14:08.191Z,95.35
2023-07-10T23:16:35.953Z,95.33
2023-07-10T23:19:02.984Z,95.50
2023-07-10T23:21:30.215Z,95.73
2023-07-10T23:23:57.388Z,95.79
2023-07-10T23:26:26.530Z,95.86
2023-07-10T23:28:53.734Z,95.67
2023-07-10T23:31:29.699Z,95.69
2023-07-10T23:33:57.059Z,95.22
2023-07-10T23:36:28.083Z,95.27
2023-07-10T23:38:59.753Z,95.54
2023-07-10T23:41:26.782Z,95.34
2023-07-10T23:43:53.668Z,95.48
2023-07-10T23:46:20.555Z,95.62
2023-07-10T23:48:47.777Z,95.88
2023-07-10T23:51:15.021Z,95.88
2023-07-10T23:53:42.332Z,95.21
2023-07-10T23:56:09.802Z,95.12
2023-07-10T23:58:37.770Z,95.79
